Sparwood, Canada
Current Conditions -  °F | °C
As of 3:00 PM on Tuesday 21 Oct 2014 (Local Time) from CYXC Reporting Station
Broken Clouds Broken Clouds  
Wind Chill: 14°   Ceiling: 21000
Heat Index: 14°   Visibility: 25mi
Dew Point:   Wind: 12mph
Humidity: 48%   Direction: 180°S
Pressure: 29.79"   Gusts: 18mph
Location:  49.72°N, 114.89°W
Report Text: CYXC 212100Z 18010G16KT 170V240 25SM SCT060 BKN210 14/03 A2979 RMK SC4CI3 SLP087 DENSITY ALT 3700FT
Loading
Personal Weather Stations






























Interactive Weather Map
Tropical Storm Tracking
New forecast layout! Learn more

10-Day Weather Forecast

Advertisements
Track Severe Weather on mobile